Time;durP1;ratioP1;P1;durP2;ratioP2;P2;SDS_P1;SDS_P2;PMS_P1;PMS_P2;Temp;Humidity;BMP_temperature;BMP_pressure;BME280_temperature;BME280_humidity;BME280_pressure;Samples;Min_cycle;Max_cycle;Signal;HPM_P1;HPM_P2
2023/08/06 00:02:13;;;;;;;12.68;7.63;;;14.40;99.90;;;;;;5071272;28;20450;-70
2023/08/06 00:04:39;;;;;;;11.30;7.65;;;14.30;99.90;;;;;;5072755;28;20045;-70
2023/08/06 00:07:04;;;;;;;10.38;8.20;;;14.40;99.90;;;;;;5071168;28;20067;-70
2023/08/06 00:09:30;;;;;;;10.68;7.18;;;14.30;99.90;;;;;;5071340;28;20536;-70
2023/08/06 00:11:56;;;;;;;11.60;7.68;;;14.30;99.90;;;;;;5081583;28;20071;-70
2023/08/06 00:14:21;;;;;;;10.98;7.55;;;14.50;99.90;;;;;;5091805;28;20043;-70
2023/08/06 00:16:47;;;;;;;9.70;7.50;;;14.40;99.90;;;;;;5091501;28;20495;-70
2023/08/06 00:19:12;;;;;;;13.38;7.80;;;14.50;99.90;;;;;;5092424;28;20069;-70
2023/08/06 00:21:38;;;;;;;14.13;7.50;;;14.20;99.90;;;;;;5091457;28;20046;-70
2023/08/06 00:24:04;;;;;;;13.10;8.88;;;14.40;99.90;;;;;;5083181;28;20036;-70
2023/08/06 00:26:30;;;;;;;13.63;8.80;;;14.40;99.90;;;;;;5070976;28;20499;-70
2023/08/06 00:28:55;;;;;;;11.18;8.77;;;14.30;99.90;;;;;;5070627;28;20056;-70
2023/08/06 00:31:21;;;;;;;12.80;9.52;;;14.40;99.90;;;;;;5072192;28;20043;-70
2023/08/06 00:33:46;;;;;;;12.30;9.60;;;14.40;99.90;;;;;;5072071;28;20123;-70
2023/08/06 00:36:12;;;;;;;11.95;9.57;;;14.40;99.90;;;;;;5070895;28;20040;-70
2023/08/06 00:38:37;;;;;;;12.85;9.23;;;14.30;99.90;;;;;;5071809;28;20028;-70
2023/08/06 00:41:03;;;;;;;15.30;9.52;;;14.20;99.90;;;;;;5072211;28;20138;-70
2023/08/06 00:43:29;;;;;;;15.35;9.75;;;14.20;99.90;;;;;;5071076;28;20067;-70
2023/08/06 00:45:55;;;;;;;13.25;9.73;;;14.20;99.90;;;;;;5072092;28;20040;-70
2023/08/06 00:48:21;;;;;;;15.13;9.50;;;14.40;99.90;;;;;;5071381;28;20044;-70
2023/08/06 00:50:47;;;;;;;16.35;11.50;;;14.20;99.90;;;;;;5070907;28;20060;-70
2023/08/06 00:53:13;;;;;;;13.20;10.18;;;14.20;99.90;;;;;;5069546;28;20044;-70
2023/08/06 00:55:39;;;;;;;13.48;10.40;;;14.20;99.90;;;;;;5068460;28;20082;-70
2023/08/06 00:58:05;;;;;;;14.70;11.50;;;14.30;99.90;;;;;;5069651;28;20457;-70
2023/08/06 01:00:31;;;;;;;16.05;11.30;;;14.30;99.90;;;;;;5069792;28;20116;-70
2023/08/06 01:02:56;;;;;;;14.13;10.65;;;14.30;99.90;;;;;;5071202;28;20050;-70
2023/08/06 01:05:23;;;;;;;16.88;11.00;;;14.30;99.90;;;;;;5071356;28;20044;-70
2023/08/06 01:08:20;;;;;;;15.68;10.98;;;14.20;99.90;;;;;;5070950;28;20074;-70
2023/08/06 01:10:52;;;;;;;16.73;12.05;;;14.10;99.90;;;;;;5067178;28;20058;-70
2023/08/06 01:13:43;;;;;;;15.70;11.38;;;14.20;99.90;;;;;;5071031;28;20582;-70
2023/08/06 01:16:11;;;;;;;16.27;11.80;;;14.20;99.90;;;;;;5071396;28;20036;-70
2023/08/06 01:18:38;;;;;;;16.75;11.32;;;14.10;99.90;;;;;;5070845;28;20041;-70
2023/08/06 01:21:04;;;;;;;17.10;12.05;;;14.20;99.90;;;;;;5071159;28;20041;-70
2023/08/06 01:23:30;;;;;;;17.75;13.13;;;14.20;99.90;;;;;;5070272;28;20033;-70
2023/08/06 01:26:18;;;;;;;18.23;13.15;;;14.30;99.90;;;;;;5070247;28;20070;-70
2023/08/06 01:28:44;;;;;;;17.80;13.50;;;14.30;99.90;;;;;;5069900;28;20044;-70
2023/08/06 01:31:21;;;;;;;16.70;12.43;;;14.40;99.90;;;;;;5071501;28;20389;-70
2023/08/06 01:33:49;;;;;;;21.08;13.63;;;14.30;99.90;;;;;;5070358;28;20132;-70
2023/08/06 01:36:18;;;;;;;20.23;13.95;;;14.30;99.90;;;;;;5071310;28;20411;-70
2023/08/06 01:38:43;;;;;;;18.92;13.48;;;14.20;99.90;;;;;;5071399;28;20111;-70
2023/08/06 01:41:09;;;;;;;18.38;12.98;;;14.40;99.90;;;;;;5071519;28;20479;-71
2023/08/06 01:43:34;;;;;;;17.90;14.18;;;14.40;99.90;;;;;;5071431;28;20128;-71
2023/08/06 01:46:00;;;;;;;21.17;14.50;;;14.20;99.90;;;;;;5070153;28;20090;-70
2023/08/06 01:48:26;;;;;;;17.90;13.55;;;14.40;99.90;;;;;;5070889;28;20048;-70
2023/08/06 01:50:51;;;;;;;19.17;15.13;;;14.30;99.90;;;;;;5071179;28;20033;-70
2023/08/06 01:53:17;;;;;;;20.95;13.98;;;14.40;99.90;;;;;;5071254;28;20036;-70
2023/08/06 01:55:48;;;;;;;20.05;14.88;;;14.40;99.90;;;;;;5071379;28;20043;-70
2023/08/06 01:58:13;;;;;;;18.77;13.45;;;14.20;99.90;;;;;;5071025;28;20036;-70
2023/08/06 02:00:40;;;;;;;20.27;14.30;;;14.40;99.90;;;;;;5071291;28;20194;-70
2023/08/06 02:03:05;;;;;;;19.23;14.55;;;14.20;99.90;;;;;;5069973;28;20056;-70
2023/08/06 02:05:31;;;;;;;18.00;13.60;;;14.40;99.90;;;;;;5071089;28;20040;-70
2023/08/06 02:07:56;;;;;;;21.60;14.07;;;14.30;99.90;;;;;;5070886;28;20041;-71
2023/08/06 02:10:22;;;;;;;19.98;14.13;;;14.30;99.90;;;;;;5075004;28;20040;-70
2023/08/06 02:12:48;;;;;;;21.48;14.85;;;14.30;99.90;;;;;;5074862;28;20094;-70
2023/08/06 02:15:13;;;;;;;20.92;15.00;;;14.40;99.90;;;;;;5073582;28;20040;-70
2023/08/06 02:17:39;;;;;;;22.00;14.68;;;14.40;99.90;;;;;;5074347;28;20040;-70
2023/08/06 02:20:05;;;;;;;22.00;14.35;;;14.30;99.90;;;;;;5074564;28;20039;-71
2023/08/06 02:22:31;;;;;;;18.83;14.35;;;14.30;99.90;;;;;;5074757;28;20079;-70
2023/08/06 02:24:56;;;;;;;19.40;14.70;;;14.40;99.90;;;;;;5073433;28;20075;-70
2023/08/06 02:27:22;;;;;;;17.50;13.60;;;14.40;99.90;;;;;;5073097;28;20044;-70
2023/08/06 02:29:47;;;;;;;21.50;14.30;;;14.30;99.90;;;;;;5074400;28;20048;-70
2023/08/06 02:32:13;;;;;;;20.98;13.88;;;14.50;99.90;;;;;;5074429;28;20119;-71
2023/08/06 02:34:38;;;;;;;18.27;13.85;;;14.50;99.90;;;;;;5074419;28;20033;-70
2023/08/06 02:37:05;;;;;;;18.55;14.38;;;14.30;99.90;;;;;;5072755;28;20128;-70
2023/08/06 02:39:31;;;;;;;18.08;14.00;;;14.30;99.90;;;;;;5074331;28;20115;-70
2023/08/06 02:41:56;;;;;;;21.65;14.48;;;14.40;99.90;;;;;;5074373;28;20036;-70
2023/08/06 02:44:22;;;;;;;17.80;13.85;;;14.30;99.90;;;;;;5074373;28;20500;-70
2023/08/06 02:46:47;;;;;;;19.08;13.57;;;14.50;99.90;;;;;;5074029;28;20081;-70
2023/08/06 02:49:13;;;;;;;19.85;14.43;;;14.40;99.90;;;;;;5073733;28;20059;-70
2023/08/06 02:51:38;;;;;;;19.13;14.48;;;14.20;99.90;;;;;;5074291;28;20036;-70
2023/08/06 02:54:04;;;;;;;17.00;12.98;;;14.40;99.90;;;;;;5074132;28;20076;-71
2023/08/06 02:56:30;;;;;;;20.02;14.20;;;14.50;99.90;;;;;;5072797;28;20446;-71
2023/08/06 02:58:56;;;;;;;18.73;13.27;;;14.50;99.90;;;;;;5073837;28;20099;-70
2023/08/06 03:01:23;;;;;;;17.17;12.80;;;14.40;99.90;;;;;;5072619;28;20499;-70
2023/08/06 03:03:48;;;;;;;17.80;11.60;;;14.30;99.90;;;;;;5073842;28;20036;-70
2023/08/06 03:06:14;;;;;;;18.75;12.27;;;14.30;99.90;;;;;;5073827;28;20496;-70
2023/08/06 03:08:40;;;;;;;16.20;11.82;;;14.40;99.90;;;;;;5096734;22;20044;-69
2023/08/06 03:11:06;;;;;;;17.98;12.55;;;14.50;99.90;;;;;;5073739;28;20088;-69
2023/08/06 03:13:31;;;;;;;17.33;11.23;;;14.50;99.90;;;;;;5073505;28;20041;-69
2023/08/06 03:15:59;;;;;;;15.77;11.40;;;14.30;99.90;;;;;;5073678;28;20041;-69
2023/08/06 03:18:25;;;;;;;14.55;10.98;;;14.50;99.90;;;;;;5073078;28;20037;-69
2023/08/06 03:20:51;;;;;;;15.13;11.32;;;14.30;99.90;;;;;;5073795;28;20040;-69
2023/08/06 03:23:17;;;;;;;16.38;10.90;;;14.20;99.90;;;;;;5073776;28;20047;-69
2023/08/06 03:25:43;;;;;;;15.45;11.10;;;14.30;99.90;;;;;;5073634;28;20056;-69
2023/08/06 03:28:09;;;;;;;15.57;10.43;;;14.50;99.90;;;;;;5055269;28;20210;-68
2023/08/06 03:30:34;;;;;;;14.55;11.05;;;14.30;99.90;;;;;;5073538;28;20037;-68
2023/08/06 03:33:00;;;;;;;12.75;10.30;;;14.40;99.90;;;;;;5073239;28;20120;-69
2023/08/06 03:35:25;;;;;;;15.98;11.70;;;14.50;99.90;;;;;;5073477;28;20040;-69
2023/08/06 03:37:51;;;;;;;12.75;10.32;;;14.40;99.90;;;;;;5055096;28;20040;-68
2023/08/06 03:40:17;;;;;;;16.05;10.95;;;14.40;99.90;;;;;;5055563;28;20064;-68
2023/08/06 03:42:42;;;;;;;17.52;10.70;;;14.40;99.90;;;;;;5071151;28;20139;-69
2023/08/06 03:45:08;;;;;;;17.48;10.32;;;14.30;99.90;;;;;;5066972;28;20048;-68
2023/08/06 03:47:34;;;;;;;12.95;10.48;;;14.30;99.90;;;;;;5054890;28;20041;-69
2023/08/06 03:50:00;;;;;;;12.93;10.98;;;14.50;99.90;;;;;;5073026;28;20043;-68
2023/08/06 03:52:25;;;;;;;15.98;10.52;;;14.50;99.90;;;;;;5068910;28;20072;-69
2023/08/06 03:54:51;;;;;;;12.63;9.75;;;14.40;99.90;;;;;;5071754;28;20141;-68
2023/08/06 03:57:16;;;;;;;11.57;9.40;;;14.50;99.90;;;;;;5072728;28;20044;-68
2023/08/06 03:59:42;;;;;;;13.25;9.00;;;14.30;99.90;;;;;;5072895;28;20038;-69
2023/08/06 04:02:07;;;;;;;11.93;9.23;;;14.50;99.90;;;;;;5071734;28;20075;-68
2023/08/06 04:04:33;;;;;;;13.18;9.85;;;14.30;99.90;;;;;;5073000;28;20040;-69
2023/08/06 04:06:59;;;;;;;13.80;9.73;;;14.20;99.90;;;;;;5071469;28;20032;-69
2023/08/06 04:09:24;;;;;;;16.55;10.13;;;14.40;99.90;;;;;;5072566;28;20094;-69
2023/08/06 04:11:50;;;;;;;11.82;9.10;;;14.50;99.90;;;;;;5064526;28;20492;-70
2023/08/06 04:14:15;;;;;;;12.27;9.23;;;14.40;99.90;;;;;;5072499;28;20039;-70
2023/08/06 04:16:41;;;;;;;13.57;8.85;;;14.30;99.90;;;;;;5071416;28;20083;-70
2023/08/06 04:19:06;;;;;;;12.50;9.35;;;14.40;99.90;;;;;;5070936;28;20484;-70
2023/08/06 04:21:32;;;;;;;12.55;9.15;;;14.50;99.90;;;;;;5072670;28;20040;-70
2023/08/06 04:23:57;;;;;;;13.77;8.82;;;14.30;99.90;;;;;;5072438;28;20044;-70
2023/08/06 04:26:23;;;;;;;11.57;9.48;;;14.40;99.90;;;;;;5072371;28;20123;-70
2023/08/06 04:28:49;;;;;;;10.90;8.18;;;14.50;99.90;;;;;;5072165;28;20111;-70
2023/08/06 04:31:14;;;;;;;13.77;8.90;;;14.40;99.90;;;;;;5071650;28;20167;-70
2023/08/06 04:33:40;;;;;;;9.52;7.63;;;14.50;99.90;;;;;;5072409;28;20065;-70
2023/08/06 04:36:06;;;;;;;17.50;8.30;;;14.30;99.90;;;;;;5072387;28;20037;-70
2023/08/06 04:38:31;;;;;;;13.32;8.52;;;14.30;99.90;;;;;;5071829;28;20043;-70
2023/08/06 04:40:58;;;;;;;12.82;8.30;;;14.50;99.90;;;;;;5072166;28;20037;-70
2023/08/06 04:43:24;;;;;;;9.75;7.70;;;14.30;99.90;;;;;;5072139;28;20047;-69
2023/08/06 04:45:50;;;;;;;12.45;8.80;;;14.50;99.90;;;;;;5071032;28;20040;-70
2023/08/06 04:48:16;;;;;;;11.57;8.82;;;14.40;99.90;;;;;;5071868;28;20032;-70
2023/08/06 04:50:48;;;;;;;11.75;8.95;;;14.50;99.90;;;;;;5072180;28;20044;-70
2023/08/06 04:53:14;;;;;;;13.40;9.02;;;14.40;99.90;;;;;;5068258;28;20072;-70
2023/08/06 04:55:40;;;;;;;15.13;10.00;;;14.50;99.90;;;;;;5071797;28;20102;-69
2023/08/06 04:58:05;;;;;;;16.00;10.60;;;14.50;99.90;;;;;;5071621;28;20162;-70
2023/08/06 05:00:31;;;;;;;17.95;10.77;;;14.30;99.90;;;;;;5071803;28;20040;-69
2023/08/06 05:02:59;;;;;;;17.55;11.48;;;14.30;99.90;;;;;;5072034;28;20385;-70
2023/08/06 05:05:24;;;;;;;21.52;12.95;;;14.60;99.90;;;;;;5070862;28;20183;-70
2023/08/06 05:07:50;;;;;;;20.33;12.02;;;14.50;99.90;;;;;;5071527;28;20116;-69
2023/08/06 05:10:16;;;;;;;20.92;11.07;;;14.50;99.90;;;;;;5070743;28;20442;-70
2023/08/06 05:12:42;;;;;;;20.38;11.93;;;14.40;99.90;;;;;;5071694;28;20043;-70
2023/08/06 05:15:08;;;;;;;16.67;11.85;;;14.50;99.90;;;;;;5071670;28;20086;-70
2023/08/06 05:17:33;;;;;;;23.08;13.25;;;14.60;99.90;;;;;;5070334;28;20039;-70
2023/08/06 05:19:59;;;;;;;16.38;11.45;;;14.70;99.90;;;;;;5071589;28;20044;-70
2023/08/06 05:22:25;;;;;;;12.93;9.38;;;14.70;99.90;;;;;;5071618;28;20046;-70
2023/08/06 05:24:51;;;;;;;16.25;9.73;;;14.60;99.90;;;;;;5070358;28;20044;-70
2023/08/06 05:27:18;;;;;;;13.95;10.40;;;14.60;99.90;;;;;;5070041;28;20443;-70
2023/08/06 05:29:44;;;;;;;24.70;10.45;;;14.70;99.90;;;;;;5070177;28;20392;-70
2023/08/06 05:32:10;;;;;;;13.48;9.18;;;14.70;99.90;;;;;;5071430;28;20055;-69
2023/08/06 05:34:36;;;;;;;12.23;9.38;;;14.80;99.90;;;;;;5070270;28;20043;-70
2023/08/06 05:37:02;;;;;;;14.75;9.43;;;14.80;99.90;;;;;;5071388;28;20043;-70
2023/08/06 05:39:27;;;;;;;12.40;8.15;;;14.70;99.90;;;;;;5071537;28;20037;-70
2023/08/06 05:41:53;;;;;;;14.65;9.63;;;14.90;99.90;;;;;;5073050;28;20043;-70
2023/08/06 05:44:18;;;;;;;14.07;9.60;;;15.00;99.90;;;;;;5074598;28;20040;-70
2023/08/06 05:46:44;;;;;;;14.23;10.60;;;14.90;99.90;;;;;;5075461;28;20068;-70
2023/08/06 05:49:09;;;;;;;12.55;9.05;;;14.80;99.90;;;;;;5074061;28;20097;-70
2023/08/06 05:51:35;;;;;;;13.63;9.55;;;14.90;99.90;;;;;;5075640;28;20036;-70
2023/08/06 05:54:01;;;;;;;15.63;9.82;;;15.10;99.90;;;;;;5075446;28;20076;-70
2023/08/06 05:56:26;;;;;;;17.35;9.77;;;15.10;99.90;;;;;;5075237;28;20032;-70
2023/08/06 05:58:53;;;;;;;15.57;10.25;;;15.00;99.90;;;;;;5075010;28;20044;-70
2023/08/06 06:01:19;;;;;;;13.88;9.85;;;15.10;99.90;;;;;;5075496;28;20098;-70
2023/08/06 06:03:44;;;;;;;12.05;8.20;;;15.10;99.90;;;;;;5075402;28;20111;-70
2023/08/06 06:06:10;;;;;;;14.00;9.60;;;15.30;99.90;;;;;;5075220;28;20460;-70
2023/08/06 06:08:35;;;;;;;11.68;8.80;;;15.30;99.90;;;;;;5074676;28;20444;-70
2023/08/06 06:11:01;;;;;;;14.88;8.90;;;15.30;99.90;;;;;;5075074;28;20130;-70
2023/08/06 06:13:27;;;;;;;14.52;10.13;;;15.30;99.90;;;;;;5074843;28;20093;-70
2023/08/06 06:15:56;;;;;;;15.40;8.65;;;15.30;99.90;;;;;;5074826;28;20041;-70
2023/08/06 06:18:22;;;;;;;13.75;8.82;;;15.40;99.90;;;;;;5074780;28;20036;-70
2023/08/06 06:20:47;;;;;;;13.68;10.15;;;15.40;99.90;;;;;;5075032;28;20032;-70
2023/08/06 06:23:14;;;;;;;13.38;9.20;;;15.40;99.90;;;;;;5074859;28;20036;-70
2023/08/06 06:25:57;;;;;;;13.05;9.60;;;15.50;99.90;;;;;;5073538;28;20041;-70
2023/08/06 06:28:23;;;;;;;14.63;8.55;;;15.60;99.90;;;;;;5074617;28;20040;-70
2023/08/06 06:30:48;;;;;;;12.07;8.82;;;15.70;99.90;;;;;;5074742;28;20086;-70
2023/08/06 06:33:14;;;;;;;15.52;9.13;;;15.70;99.90;;;;;;5074678;28;20041;-70
2023/08/06 06:35:40;;;;;;;11.02;8.07;;;16.00;99.90;;;;;;5074609;28;20043;-70
2023/08/06 06:38:05;;;;;;;11.40;8.45;;;15.90;99.90;;;;;;5074255;28;20048;-70
2023/08/06 06:40:31;;;;;;;11.32;8.45;;;15.80;99.90;;;;;;5074653;28;20086;-70
2023/08/06 06:42:56;;;;;;;12.73;8.23;;;15.70;99.90;;;;;;5074632;28;20086;-70
2023/08/06 06:45:22;;;;;;;11.25;8.52;;;15.90;99.90;;;;;;5074541;28;20045;-70
2023/08/06 06:47:47;;;;;;;11.45;7.95;;;15.90;99.90;;;;;;5074142;28;20033;-70
2023/08/06 06:50:13;;;;;;;11.55;8.25;;;15.90;99.90;;;;;;5074389;28;20093;-70
2023/08/06 06:52:38;;;;;;;10.45;7.95;;;16.00;99.90;;;;;;5074128;28;20045;-70
2023/08/06 06:55:04;;;;;;;12.02;8.50;;;16.00;99.90;;;;;;5073679;28;20504;-70
2023/08/06 06:57:30;;;;;;;8.38;6.88;;;16.00;99.90;;;;;;5074138;28;20032;-70
2023/08/06 06:59:55;;;;;;;11.25;7.38;;;16.30;99.90;;;;;;5074178;28;20491;-70
2023/08/06 07:02:21;;;;;;;9.48;7.35;;;16.30;99.90;;;;;;5074198;28;20376;-70
2023/08/06 07:04:47;;;;;;;10.25;7.85;;;16.40;99.90;;;;;;5074055;28;20040;-70
2023/08/06 07:07:12;;;;;;;13.65;7.18;;;16.60;99.90;;;;;;5073762;28;20140;-70
2023/08/06 07:09:38;;;;;;;9.15;7.18;;;16.60;99.90;;;;;;5073649;28;20040;-70
2023/08/06 07:12:04;;;;;;;11.98;7.47;;;16.50;99.90;;;;;;5074025;28;20089;-70
2023/08/06 07:14:29;;;;;;;10.50;6.85;;;16.50;99.90;;;;;;5073745;28;20032;-70
2023/08/06 07:16:55;;;;;;;8.50;6.75;;;16.60;99.90;;;;;;5073710;28;20169;-70
2023/08/06 07:19:21;;;;;;;9.65;6.78;;;16.80;99.90;;;;;;5073821;28;20480;-70
2023/08/06 07:21:46;;;;;;;9.05;7.00;;;16.80;99.90;;;;;;5073715;28;20036;-70
2023/08/06 07:24:12;;;;;;;9.68;6.53;;;17.00;99.90;;;;;;5073608;28;20119;-69
2023/08/06 07:26:38;;;;;;;8.75;7.03;;;17.00;99.90;;;;;;5073658;28;20500;-70
2023/08/06 07:29:03;;;;;;;8.13;6.70;;;16.80;99.90;;;;;;5073447;28;20083;-70
2023/08/06 07:31:29;;;;;;;8.18;7.22;;;16.90;99.90;;;;;;5073683;28;20074;-70
2023/08/06 07:33:54;;;;;;;7.13;6.40;;;17.00;99.90;;;;;;5073555;28;20037;-70
2023/08/06 07:36:20;;;;;;;8.30;7.15;;;17.10;99.90;;;;;;5073364;28;20451;-70
2023/08/06 07:38:48;;;;;;;11.05;8.10;;;17.20;99.90;;;;;;5073106;28;20083;-70
2023/08/06 07:41:14;;;;;;;8.73;7.68;;;17.10;99.90;;;;;;5072087;28;20040;-70
2023/08/06 07:43:39;;;;;;;8.55;6.38;;;17.20;99.90;;;;;;5073471;28;20089;-71
2023/08/06 07:46:05;;;;;;;9.02;7.20;;;17.50;99.90;;;;;;5073220;28;20097;-71
2023/08/06 07:48:31;;;;;;;10.48;7.07;;;17.10;99.90;;;;;;5071661;28;20051;-70
2023/08/06 07:50:57;;;;;;;10.88;7.82;;;17.00;99.90;;;;;;5073224;28;20039;-71
2023/08/06 07:53:26;;;;;;;7.32;6.53;;;17.60;99.90;;;;;;5071854;28;20044;-70
2023/08/06 07:55:53;;;;;;;8.52;7.10;;;17.60;99.90;;;;;;5072652;28;20584;-70
2023/08/06 07:58:19;;;;;;;7.65;6.68;;;17.50;99.90;;;;;;5070190;28;20081;-70
2023/08/06 08:00:45;;;;;;;9.15;7.20;;;17.60;99.90;;;;;;5072333;28;20090;-70
2023/08/06 08:03:13;;;;;;;9.20;7.38;;;17.80;99.90;;;;;;5054709;28;20044;-70
2023/08/06 08:05:39;;;;;;;9.38;7.97;;;17.50;99.90;;;;;;5071468;28;20507;-70
2023/08/06 08:08:04;;;;;;;9.43;7.20;;;17.70;99.90;;;;;;5071824;28;20046;-70
2023/08/06 08:10:31;;;;;;;9.10;6.85;;;17.70;99.90;;;;;;5054642;28;20116;-70
2023/08/06 08:12:57;;;;;;;7.88;6.70;;;18.00;99.90;;;;;;5072383;28;20041;-70
2023/08/06 08:15:23;;;;;;;8.52;6.13;;;18.20;99.90;;;;;;5072322;28;20037;-70
2023/08/06 08:17:48;;;;;;;8.63;6.43;;;18.00;99.90;;;;;;5072066;28;20158;-71
2023/08/06 08:20:16;;;;;;;9.45;6.60;;;18.50;99.90;;;;;;5054134;28;20064;-71
2023/08/06 08:22:41;;;;;;;9.93;6.53;;;18.90;99.90;;;;;;5072107;28;20559;-71
2023/08/06 08:25:07;;;;;;;9.40;6.32;;;18.90;99.90;;;;;;5072285;28;20143;-71
2023/08/06 08:27:33;;;;;;;5.85;5.22;;;18.90;99.90;;;;;;5071952;28;20492;-71
2023/08/06 08:29:58;;;;;;;6.47;5.50;;;18.90;99.90;;;;;;5040452;28;20080;-71
2023/08/06 08:32:24;;;;;;;6.85;5.60;;;18.90;99.90;;;;;;5071571;28;20041;-72
2023/08/06 08:34:49;;;;;;;8.43;6.32;;;18.90;99.90;;;;;;5072136;28;20029;-71
2023/08/06 08:37:15;;;;;;;7.30;5.57;;;19.50;99.90;;;;;;5071510;28;20660;-72
2023/08/06 08:39:41;;;;;;;6.38;5.22;;;19.50;99.90;;;;;;5053773;28;20116;-71
2023/08/06 08:42:07;;;;;;;7.13;4.90;;;19.80;99.90;;;;;;5071879;28;20048;-71
2023/08/06 08:44:33;;;;;;;6.55;4.40;;;20.30;99.90;;;;;;5071966;28;20044;-71
2023/08/06 08:47:00;;;;;;;7.18;3.60;;;20.20;99.90;;;;;;5058182;28;20658;-71
2023/08/06 08:49:27;;;;;;;4.50;3.80;;;20.20;99.90;;;;;;5053112;28;20518;-71
2023/08/06 08:51:54;;;;;;;5.63;4.25;;;20.50;99.90;;;;;;5071735;28;20043;-71
2023/08/06 08:54:23;;;;;;;4.80;3.42;;;20.40;99.90;;;;;;5071544;28;20138;-71
2023/08/06 08:56:49;;;;;;;5.20;3.85;;;20.50;99.90;;;;;;5053822;28;20041;-70
2023/08/06 08:59:14;;;;;;;5.90;3.33;;;20.40;99.90;;;;;;5071101;28;20032;-70
2023/08/06 09:01:42;;;;;;;4.63;3.00;;;20.50;99.90;;;;;;5071173;28;20044;-72
2023/08/06 09:04:09;;;;;;;4.30;2.70;;;20.30;99.90;;;;;;5071335;28;20068;-70
2023/08/06 09:06:37;;;;;;;5.68;2.85;;;20.10;99.90;;;;;;5071687;28;20044;-70
2023/08/06 09:09:11;;;;;;;3.90;2.80;;;20.30;99.90;;;;;;5071287;28;20541;-69
2023/08/06 09:11:43;;;;;;;4.25;2.90;;;20.40;99.90;;;;;;5053250;28;20090;-69
2023/08/06 09:14:09;;;;;;;3.55;1.85;;;20.20;99.90;;;;;;5071798;28;20036;-69
2023/08/06 09:16:35;;;;;;;4.82;2.50;;;20.50;99.90;;;;;;5070936;28;20082;-71
2023/08/06 09:19:10;;;;;;;3.15;2.33;;;20.60;99.90;;;;;;5020268;28;20050;-69
2023/08/06 09:21:40;;;;;;;5.40;2.35;;;20.50;99.90;;;;;;5057212;28;20561;-70
2023/08/06 09:24:11;;;;;;;6.18;2.25;;;20.70;99.90;;;;;;5053509;28;20076;-69
2023/08/06 09:26:41;;;;;;;2.67;2.40;;;21.00;99.90;;;;;;5071282;28;20048;-70
2023/08/06 09:29:08;;;;;;;5.93;3.40;;;21.40;99.90;;;;;;5070995;28;20028;-70
2023/08/06 09:31:42;;;;;;;3.10;2.20;;;21.60;99.90;;;;;;5053514;28;20044;-69
2023/08/06 09:34:16;;;;;;;3.30;1.95;;;21.40;99.90;;;;;;5071106;28;20037;-70
2023/08/06 09:36:46;;;;;;;2.53;1.85;;;21.30;99.90;;;;;;5052988;28;20048;-70
2023/08/06 09:39:34;;;;;;;4.80;2.53;;;21.30;99.90;;;;;;5070976;28;20036;-70
2023/08/06 09:42:01;;;;;;;4.78;2.17;;;21.30;99.90;;;;;;5054385;28;20428;-69
2023/08/06 09:44:28;;;;;;;3.58;1.58;;;21.30;99.90;;;;;;5071204;28;20547;-69
2023/08/06 09:46:59;;;;;;;2.47;1.90;;;21.30;99.90;;;;;;5052929;28;20048;-69
2023/08/06 09:49:39;;;;;;;3.28;1.30;;;21.40;99.90;;;;;;5071201;28;20489;-71
2023/08/06 09:52:05;;;;;;;2.42;1.35;;;21.60;99.90;;;;;;5070910;28;20075;-69
2023/08/06 09:54:32;;;;;;;3.35;1.60;;;21.60;99.90;;;;;;5071134;28;20082;-69
2023/08/06 09:56:58;;;;;;;2.25;1.55;;;21.60;99.90;;;;;;5070996;28;20133;-69
2023/08/06 09:59:24;;;;;;;2.40;1.48;;;22.00;99.90;;;;;;5052875;28;20068;-68
2023/08/06 10:01:50;;;;;;;2.67;1.50;;;21.80;99.90;;;;;;5053365;28;20048;-68
2023/08/06 10:04:16;;;;;;;2.92;1.35;;;21.80;99.90;;;;;;5070893;28;20523;-68
2023/08/06 10:06:42;;;;;;;2.22;1.27;;;21.50;99.90;;;;;;5070761;28;20523;-69
2023/08/06 10:09:09;;;;;;;2.95;1.17;;;21.60;99.90;;;;;;5070785;28;20033;-69
2023/08/06 10:11:36;;;;;;;2.55;1.10;;;21.60;99.90;;;;;;5070809;28;20502;-69
2023/08/06 10:14:13;;;;;;;1.67;1.13;;;21.60;99.90;;;;;;5070845;28;20055;-69
2023/08/06 10:16:40;;;;;;;2.35;1.65;;;21.80;99.90;;;;;;5070719;28;20438;-70
2023/08/06 10:19:09;;;;;;;2.10;1.35;;;21.90;99.90;;;;;;5070680;28;20068;-70
2023/08/06 10:21:35;;;;;;;2.45;1.23;;;21.80;99.90;;;;;;5019851;28;20079;-69
2023/08/06 10:24:02;;;;;;;3.35;1.75;;;21.80;99.90;;;;;;5071133;28;20041;-69
2023/08/06 10:26:30;;;;;;;1.80;1.40;;;21.80;99.90;;;;;;5070872;28;20041;-69
2023/08/06 10:28:57;;;;;;;3.13;1.50;;;21.90;99.90;;;;;;5054365;28;20039;-69
2023/08/06 10:32:07;;;;;;;2.90;1.58;;;22.00;99.90;;;;;;5056717;28;20051;-70
2023/08/06 10:34:58;;;;;;;2.30;1.13;;;21.80;99.90;;;;;;5062407;28;20057;-70
2023/08/06 10:37:44;;;;;;;2.47;1.80;;;21.70;99.90;;;;;;5061684;28;20044;-69
2023/08/06 10:40:10;;;;;;;2.10;1.48;;;21.80;99.90;;;;;;5074060;28;20040;-69
2023/08/06 10:42:36;;;;;;;4.28;1.70;;;21.80;99.90;;;;;;5074603;28;20112;-69
2023/08/06 10:45:16;;;;;;;3.38;1.63;;;22.10;99.90;;;;;;5074346;28;20059;-68
2023/08/06 10:47:42;;;;;;;2.08;1.42;;;22.10;99.90;;;;;;5073333;28;20043;-70
2023/08/06 10:50:17;;;;;;;1.42;1.17;;;21.90;99.90;;;;;;5073348;28;20543;-68
2023/08/06 10:52:47;;;;;;;1.70;1.10;;;21.80;99.90;;;;;;5070342;28;20097;-70
2023/08/06 10:55:24;;;;;;;2.10;1.45;;;21.60;99.90;;;;;;5073570;28;20041;-69
2023/08/06 10:57:50;;;;;;;2.55;1.58;;;21.50;99.90;;;;;;5055872;28;20098;-70
2023/08/06 11:00:16;;;;;;;2.00;1.15;;;21.40;99.90;;;;;;5074365;28;20539;-70
2023/08/06 11:02:42;;;;;;;4.13;1.40;;;21.30;99.90;;;;;;5074737;28;20051;-70
2023/08/06 11:05:09;;;;;;;2.00;1.40;;;21.10;99.90;;;;;;5074265;28;20040;-70
2023/08/06 11:07:36;;;;;;;2.03;1.38;;;21.20;99.90;;;;;;5073953;28;20522;-72
2023/08/06 11:10:06;;;;;;;3.13;1.50;;;20.90;99.90;;;;;;5056189;28;20087;-69
2023/08/06 11:12:32;;;;;;;2.70;1.67;;;20.80;99.90;;;;;;5073944;28;20515;-70
2023/08/06 11:14:59;;;;;;;2.15;1.40;;;21.00;99.90;;;;;;5074174;28;20066;-70
2023/08/06 11:17:25;;;;;;;3.38;1.67;;;21.00;99.90;;;;;;5073764;28;20041;-69
2023/08/06 11:19:52;;;;;;;3.17;1.70;;;20.80;99.90;;;;;;5055733;28;20048;-70
2023/08/06 11:22:18;;;;;;;2.30;1.38;;;20.80;99.90;;;;;;5055735;28;20086;-69
2023/08/06 11:24:43;;;;;;;2.08;1.33;;;20.70;99.90;;;;;;5073863;28;20036;-70
2023/08/06 11:27:16;;;;;;;1.70;1.27;;;20.80;99.90;;;;;;5073491;28;20043;-69
2023/08/06 11:29:42;;;;;;;2.17;1.40;;;20.80;99.90;;;;;;5073486;28;20111;-70
2023/08/06 11:32:09;;;;;;;2.33;1.40;;;20.80;99.90;;;;;;5073127;28;20377;-69
2023/08/06 11:34:35;;;;;;;1.92;1.23;;;21.00;99.90;;;;;;5073555;28;20542;-69
2023/08/06 11:37:04;;;;;;;2.17;1.10;;;21.00;99.90;;;;;;5073071;28;20508;-68
2023/08/06 11:39:30;;;;;;;2.67;1.27;;;21.10;99.90;;;;;;5073135;28;20033;-69
2023/08/06 11:41:55;;;;;;;2.42;1.50;;;21.10;99.90;;;;;;5073457;28;20032;-69
2023/08/06 11:44:22;;;;;;;2.03;1.40;;;21.10;99.90;;;;;;5073339;28;20510;-69
2023/08/06 11:46:55;;;;;;;2.45;1.25;;;21.10;99.90;;;;;;5073118;28;20044;-69
2023/08/06 11:49:41;;;;;;;2.72;1.50;;;21.00;99.90;;;;;;5055217;28;20051;-69
2023/08/06 11:52:19;;;;;;;2.08;1.35;;;21.00;99.90;;;;;;5055279;28;20048;-70
2023/08/06 11:54:59;;;;;;;1.98;1.02;;;21.00;99.90;;;;;;5073260;28;20502;-69
2023/08/06 11:57:24;;;;;;;2.60;1.73;;;21.10;99.90;;;;;;5055239;28;20040;-69
2023/08/06 11:59:50;;;;;;;2.63;1.60;;;21.00;99.90;;;;;;5072896;28;20488;-69
2023/08/06 12:02:16;;;;;;;2.08;1.30;;;21.10;99.90;;;;;;5072939;28;20032;-68
2023/08/06 12:05:03;;;;;;;2.05;1.60;;;21.10;99.90;;;;;;5070001;28;20048;-69
2023/08/06 12:07:36;;;;;;;1.73;1.35;;;21.20;99.90;;;;;;5072417;28;20047;-69
2023/08/06 12:10:02;;;;;;;2.33;1.55;;;21.20;99.90;;;;;;5072396;28;20556;-69
2023/08/06 12:12:27;;;;;;;2.00;1.55;;;21.30;99.90;;;;;;5072769;28;20116;-69
2023/08/06 12:14:54;;;;;;;2.70;1.27;;;21.40;99.90;;;;;;5072487;28;20432;-69
2023/08/06 12:17:20;;;;;;;2.22;1.23;;;21.40;99.90;;;;;;5072326;28;20097;-69
2023/08/06 12:19:47;;;;;;;3.55;2.28;;;21.40;99.90;;;;;;5071437;28;20527;-69
2023/08/06 12:22:13;;;;;;;3.67;1.45;;;21.30;99.90;;;;;;5071767;28;20381;-69
2023/08/06 12:24:43;;;;;;;4.13;1.30;;;21.40;99.90;;;;;;5072716;28;20044;-70
2023/08/06 12:27:09;;;;;;;2.83;1.70;;;21.40;99.90;;;;;;5054358;28;20041;-69
2023/08/06 12:29:35;;;;;;;3.30;1.38;;;21.50;99.90;;;;;;5059829;28;20542;-70
2023/08/06 12:32:01;;;;;;;2.55;1.35;;;21.30;99.90;;;;;;5072444;28;20040;-70
2023/08/06 12:34:27;;;;;;;4.20;2.55;;;21.40;99.90;;;;;;5071053;28;20036;-70
2023/08/06 12:36:52;;;;;;;2.63;1.70;;;21.40;99.90;;;;;;5071156;28;20106;-70
2023/08/06 12:39:18;;;;;;;3.92;1.45;;;21.40;99.90;;;;;;5072259;28;20043;-70